createdAt,value
2024-02-22T00:00:52.730Z,10.42
2024-02-22T00:03:20.923Z,10.49
2024-02-22T00:05:49.241Z,10.42
2024-02-22T00:08:17.613Z,10.52
2024-02-22T00:10:46.695Z,10.50
2024-02-22T00:13:15.880Z,10.43
2024-02-22T00:15:44.117Z,10.40
2024-02-22T00:18:12.957Z,10.39
2024-02-22T00:20:41.367Z,10.41
2024-02-22T00:23:09.642Z,10.42
2024-02-22T00:25:37.864Z,10.48
2024-02-22T00:28:05.874Z,10.43
2024-02-22T00:30:34.133Z,10.61
2024-02-22T00:33:02.418Z,10.49
2024-02-22T00:35:30.774Z,10.46
2024-02-22T00:37:59.460Z,10.48
2024-02-22T00:40:27.873Z,10.55
2024-02-22T00:42:56.191Z,10.49
2024-02-22T00:45:24.393Z,10.62
2024-02-22T00:47:52.718Z,10.54
2024-02-22T00:50:20.927Z,10.53
2024-02-22T00:52:52.078Z,10.63
2024-02-22T00:55:20.630Z,10.54
2024-02-22T00:57:49.023Z,10.64
2024-02-22T01:00:17.386Z,10.55
2024-02-22T01:02:45.602Z,10.55
2024-02-22T01:05:13.918Z,10.46
2024-02-22T01:07:42.216Z,10.43
2024-02-22T01:10:10.459Z,10.37
2024-02-22T01:12:38.664Z,10.23
2024-02-22T01:15:07.635Z,10.24
2024-02-22T01:17:35.698Z,10.26
2024-02-22T01:20:05.830Z,10.21
2024-02-22T01:22:34.351Z,10.12
2024-02-22T01:25:02.621Z,10.07
2024-02-22T01:27:30.786Z,10.03
2024-02-22T01:29:59.065Z,10.07
2024-02-22T01:32:27.406Z,10.09
2024-02-22T01:34:55.635Z,10.04
2024-02-22T01:37:23.842Z,10.01
2024-02-22T01:39:51.989Z,9.91
2024-02-22T01:42:20.355Z,9.96
2024-02-22T01:44:48.580Z,9.89
2024-02-22T01:47:17.165Z,9.80
2024-02-22T01:49:45.777Z,9.77
2024-02-22T01:52:14.283Z,9.76
2024-02-22T01:54:42.544Z,9.77
2024-02-22T01:57:10.880Z,9.82
2024-02-22T01:59:39.177Z,9.66
2024-02-22T02:02:07.503Z,9.64
2024-02-22T02:04:36.409Z,9.56
2024-02-22T02:07:04.606Z,9.37
2024-02-22T02:09:33.005Z,9.29
2024-02-22T02:12:01.229Z,9.15
2024-02-22T02:14:29.468Z,9.05
2024-02-22T02:16:57.797Z,8.96
2024-02-22T02:19:27.686Z,8.88
2024-02-22T02:22:13.681Z,8.83
2024-02-22T02:25:03.238Z,8.76
2024-02-22T02:27:35.774Z,8.79
2024-02-22T02:30:04.368Z,8.79
2024-02-22T02:32:32.628Z,8.79
2024-02-22T02:35:01.116Z,8.69
2024-02-22T02:37:29.440Z,8.65
2024-02-22T02:39:57.586Z,8.62
2024-02-22T02:42:27.025Z,8.58
2024-02-22T02:44:55.313Z,8.65
2024-02-22T02:47:23.496Z,8.58
2024-02-22T02:49:52.055Z,8.58
2024-02-22T02:52:20.271Z,8.58
2024-02-22T02:54:48.429Z,8.50
2024-02-22T02:57:16.586Z,8.47
2024-02-22T02:59:44.905Z,8.43
2024-02-22T03:02:13.149Z,8.43
2024-02-22T03:04:43.186Z,8.36
2024-02-22T03:07:11.566Z,8.31
2024-02-22T03:09:39.837Z,8.24
2024-02-22T03:12:08.588Z,8.26
2024-02-22T03:14:36.762Z,8.18
2024-02-22T03:17:05.099Z,8.19
2024-02-22T03:19:33.352Z,8.19
2024-02-22T03:22:01.567Z,8.18
2024-02-22T03:24:29.703Z,8.17
2024-02-22T03:26:57.897Z,8.12
2024-02-22T03:29:27.077Z,8.08
2024-02-22T03:31:55.939Z,8.06
2024-02-22T03:34:25.106Z,8.12
2024-02-22T03:36:53.282Z,8.15
2024-02-22T03:39:21.674Z,8.08
2024-02-22T03:41:49.875Z,8.09
2024-02-22T03:44:18.432Z,8.08
2024-02-22T03:47:04.630Z,8.04
2024-02-22T03:49:33.119Z,8.03
2024-02-22T03:52:01.381Z,7.97
2024-02-22T03:54:29.568Z,8.07
2024-02-22T03:56:57.730Z,8.06
2024-02-22T03:59:26.021Z,8.02
2024-02-22T04:01:54.976Z,8.05
2024-02-22T04:04:23.183Z,8.04
2024-02-22T04:06:51.489Z,8.03
2024-02-22T04:09:19.816Z,7.99
2024-02-22T04:11:48.253Z,8.00
2024-02-22T04:14:16.649Z,7.98
2024-02-22T04:16:45.005Z,8.03
2024-02-22T04:19:13.725Z,8.01
2024-02-22T04:21:43.506Z,8.05
2024-02-22T04:24:11.710Z,8.04
2024-02-22T04:26:52.743Z,8.03
2024-02-22T04:29:21.119Z,8.04
2024-02-22T04:31:49.847Z,8.01
2024-02-22T04:34:18.165Z,8.02
2024-02-22T04:36:46.452Z,8.01
2024-02-22T04:39:15.683Z,8.02
2024-02-22T04:41:43.900Z,8.03
2024-02-22T04:44:12.355Z,8.03
2024-02-22T04:46:41.176Z,8.04
2024-02-22T04:49:10.970Z,8.09
2024-02-22T04:51:39.986Z,8.07
2024-02-22T04:54:08.167Z,8.03
2024-02-22T04:56:36.352Z,8.07
2024-02-22T04:59:04.591Z,8.05
2024-02-22T05:01:33.054Z,8.09
2024-02-22T05:04:01.536Z,8.09
2024-02-22T05:06:30.021Z,8.08
2024-02-22T05:08:58.320Z,8.13
2024-02-22T05:11:26.574Z,8.05
2024-02-22T05:13:58.318Z,8.09
2024-02-22T05:16:26.676Z,8.08
2024-02-22T05:18:54.889Z,8.12
2024-02-22T05:21:23.121Z,8.10
2024-02-22T05:23:51.318Z,8.09
2024-02-22T05:26:19.662Z,8.11
2024-02-22T05:28:48.084Z,8.08
2024-02-22T05:31:35.144Z,8.05
2024-02-22T05:34:04.739Z,8.05
2024-02-22T05:36:32.950Z,8.01
2024-02-22T05:39:02.649Z,8.03
2024-02-22T05:41:30.835Z,7.96
2024-02-22T05:43:59.017Z,7.98
2024-02-22T05:46:27.502Z,7.98
2024-02-22T05:48:55.887Z,7.97
2024-02-22T05:51:24.157Z,7.98
2024-02-22T05:53:54.888Z,7.97
2024-02-22T05:56:23.333Z,7.94
2024-02-22T05:58:51.615Z,7.92
2024-02-22T06:01:19.935Z,7.91
2024-02-22T06:03:48.129Z,7.91
2024-02-22T06:06:16.964Z,7.91
2024-02-22T06:08:45.103Z,7.91
2024-02-22T06:11:17.392Z,7.89
2024-02-22T06:13:45.916Z,7.88
2024-02-22T06:16:14.102Z,7.86
2024-02-22T06:18:42.322Z,7.87
2024-02-22T06:21:11.986Z,7.87
2024-02-22T06:23:40.962Z,7.90
2024-02-22T06:26:09.282Z,7.89
2024-02-22T06:28:37.530Z,7.87
2024-02-22T06:31:05.903Z,7.90
2024-02-22T06:33:35.245Z,7.95
2024-02-22T06:36:03.581Z,7.92
2024-02-22T06:38:31.728Z,7.91
2024-02-22T06:41:00.503Z,7.92
2024-02-22T06:43:28.687Z,8.02
2024-02-22T06:45:56.826Z,7.97
2024-02-22T06:48:25.360Z,7.98
2024-02-22T06:50:53.743Z,8.00
2024-02-22T06:53:21.946Z,8.04
2024-02-22T06:55:50.217Z,8.03
2024-02-22T06:58:18.406Z,8.09
2024-02-22T07:00:46.566Z,8.04
2024-02-22T07:03:15.362Z,8.10
2024-02-22T07:05:56.544Z,8.11
2024-02-22T07:08:24.816Z,8.16
2024-02-22T07:10:53.169Z,8.19
2024-02-22T07:13:21.390Z,8.18
2024-02-22T07:15:49.546Z,8.20
2024-02-22T07:18:18.146Z,8.22
2024-02-22T07:20:46.385Z,8.20
2024-02-22T07:23:14.573Z,8.27
2024-02-22T07:25:42.785Z,8.30
2024-02-22T07:28:11.783Z,8.32
2024-02-22T07:30:39.984Z,8.33
2024-02-22T07:33:08.824Z,8.37
2024-02-22T07:35:38.147Z,8.42
2024-02-22T07:38:07.103Z,8.44
2024-02-22T07:40:35.355Z,8.46
2024-02-22T07:43:03.682Z,8.50
2024-02-22T07:45:31.907Z,8.56
2024-02-22T07:48:00.285Z,8.54
2024-02-22T07:50:29.395Z,8.59
2024-02-22T07:52:57.675Z,8.60
2024-02-22T07:55:25.870Z,8.67
2024-02-22T07:57:54.213Z,8.66
2024-02-22T08:00:22.182Z,8.74
2024-02-22T08:02:50.369Z,8.80
2024-02-22T08:05:18.979Z,8.86
2024-02-22T08:07:49.294Z,8.91
2024-02-22T08:10:18.617Z,8.95
2024-02-22T08:12:46.798Z,9.04
2024-02-22T08:15:14.727Z,9.06
2024-02-22T08:17:42.989Z,9.04
2024-02-22T08:20:12.447Z,9.08
2024-02-22T08:22:40.760Z,9.10
2024-02-22T08:25:08.927Z,9.19
2024-02-22T08:27:46.326Z,9.20
2024-02-22T08:30:18.825Z,9.22
2024-02-22T08:32:47.080Z,9.29
2024-02-22T08:35:15.553Z,9.41
2024-02-22T08:37:43.810Z,9.51
2024-02-22T08:40:25.017Z,9.60
2024-02-22T08:43:01.975Z,9.71
2024-02-22T08:45:30.274Z,9.65
2024-02-22T08:48:03.625Z,9.73
2024-02-22T08:50:32.101Z,9.81
2024-02-22T08:53:00.593Z,9.84
2024-02-22T08:55:28.930Z,9.89
2024-02-22T08:57:59.773Z,9.90
2024-02-22T09:00:29.966Z,9.97
2024-02-22T09:02:59.020Z,9.98
2024-02-22T09:05:28.735Z,10.02
2024-02-22T09:07:57.366Z,10.12
2024-02-22T09:10:25.733Z,10.19
2024-02-22T09:12:53.894Z,10.25
2024-02-22T09:15:22.273Z,10.38
2024-02-22T09:17:50.621Z,10.38
2024-02-22T09:20:19.496Z,10.39
2024-02-22T09:22:48.812Z,10.51
2024-02-22T09:25:18.207Z,10.60
2024-02-22T09:27:46.411Z,10.77
2024-02-22T09:30:15.569Z,10.76
2024-02-22T09:32:43.841Z,10.82
2024-02-22T09:35:12.157Z,10.82
2024-02-22T09:37:40.468Z,10.81
2024-02-22T09:40:09.166Z,10.75
2024-02-22T09:42:37.580Z,10.75
2024-02-22T09:45:07.425Z,10.68
2024-02-22T09:47:35.704Z,10.84
2024-02-22T09:50:08.511Z,10.75
2024-02-22T09:52:36.835Z,10.73
2024-02-22T09:55:06.705Z,10.84
2024-02-22T09:57:34.892Z,10.95
2024-02-22T10:00:04.593Z,11.06
2024-02-22T10:02:32.826Z,11.24
2024-02-22T10:05:01.749Z,11.23
2024-02-22T10:07:36.647Z,11.42
2024-02-22T10:10:05.300Z,11.52
2024-02-22T10:12:37.770Z,11.73
2024-02-22T10:15:10.237Z,11.82
2024-02-22T10:17:39.877Z,11.93
2024-02-22T10:20:10.746Z,11.98
2024-02-22T10:22:39.837Z,12.10
2024-02-22T10:25:13.989Z,12.14
2024-02-22T10:27:47.215Z,12.07
2024-02-22T10:30:16.142Z,12.11
2024-02-22T10:32:46.886Z,12.05
2024-02-22T10:35:16.210Z,11.99
2024-02-22T10:37:44.948Z,12.12
2024-02-22T10:40:13.719Z,12.15
2024-02-22T10:42:42.037Z,12.15
2024-02-22T10:45:10.294Z,12.18
2024-02-22T10:47:39.221Z,12.29
2024-02-22T10:50:08.466Z,12.30
2024-02-22T10:52:42.230Z,12.42
2024-02-22T10:55:16.909Z,12.39
2024-02-22T10:57:49.721Z,12.51
2024-02-22T11:00:18.186Z,12.36
2024-02-22T11:02:47.257Z,12.38
2024-02-22T11:05:16.126Z,12.47
2024-02-22T11:07:56.157Z,12.39
2024-02-22T11:10:24.444Z,12.41
2024-02-22T11:12:53.563Z,12.48
2024-02-22T11:15:26.813Z,12.49
2024-02-22T11:17:57.006Z,12.40
2024-02-22T11:20:38.047Z,12.45
2024-02-22T11:23:20.035Z,12.52
2024-02-22T11:25:48.903Z,12.30
2024-02-22T11:28:17.232Z,12.33
2024-02-22T11:30:46.190Z,12.31
2024-02-22T11:33:15.314Z,12.37
2024-02-22T11:35:43.632Z,12.41
2024-02-22T11:38:11.925Z,12.55
2024-02-22T11:40:40.820Z,12.53
2024-02-22T11:43:09.069Z,12.59
2024-02-22T11:45:37.442Z,12.65
2024-02-22T11:48:06.984Z,12.76
2024-02-22T11:50:35.415Z,12.88
2024-02-22T11:53:04.903Z,12.91
2024-02-22T11:55:35.773Z,12.93
2024-02-22T11:58:04.277Z,13.07
2024-02-22T12:00:32.943Z,13.15
2024-02-22T12:03:01.249Z,13.10
2024-02-22T12:05:29.621Z,13.10
2024-02-22T12:07:58.045Z,13.05
2024-02-22T12:10:26.538Z,13.08
2024-02-22T12:12:54.712Z,13.12
2024-02-22T12:15:25.405Z,13.12
2024-02-22T12:17:55.873Z,13.20
2024-02-22T12:20:27.424Z,13.18
2024-02-22T12:22:56.556Z,12.98
2024-02-22T12:25:25.012Z,12.95
2024-02-22T12:27:58.498Z,12.88
2024-02-22T12:30:27.181Z,12.84
2024-02-22T12:32:56.041Z,12.70
2024-02-22T12:35:24.292Z,12.64
2024-02-22T12:37:52.670Z,12.61
2024-02-22T12:40:20.933Z,12.57
2024-02-22T12:42:56.049Z,12.56
2024-02-22T12:45:24.516Z,12.49
2024-02-22T12:47:52.786Z,12.47
2024-02-22T12:50:21.747Z,12.48
2024-02-22T12:52:50.235Z,12.46
2024-02-22T12:55:18.487Z,12.43
2024-02-22T12:57:46.901Z,12.43
2024-02-22T13:00:15.381Z,12.42
2024-02-22T13:02:43.425Z,12.35
2024-02-22T13:05:11.845Z,12.31
2024-02-22T13:07:40.090Z,12.33
2024-02-22T13:10:09.485Z,12.36
2024-02-22T13:12:37.718Z,12.38
2024-02-22T13:15:07.382Z,12.41
2024-02-22T13:17:35.931Z,12.45
2024-02-22T13:20:05.072Z,12.48
2024-02-22T13:22:33.244Z,12.52
2024-02-22T13:25:02.031Z,12.55
2024-02-22T13:27:33.536Z,12.62
2024-02-22T13:30:02.121Z,12.70
2024-02-22T13:32:30.931Z,12.70
2024-02-22T13:34:59.507Z,12.70
2024-02-22T13:37:27.701Z,12.73
2024-02-22T13:40:04.030Z,12.72
2024-02-22T13:42:38.346Z,12.69
2024-02-22T13:45:07.252Z,12.66
2024-02-22T13:47:35.578Z,12.56
2024-02-22T13:50:05.228Z,12.55
2024-02-22T13:52:33.394Z,12.51
2024-02-22T13:55:03.264Z,12.51
2024-02-22T13:57:34.658Z,12.46
2024-02-22T14:00:04.470Z,12.46
2024-02-22T14:02:32.695Z,12.38
2024-02-22T14:05:01.392Z,12.39
2024-02-22T14:07:29.689Z,12.44
2024-02-22T14:09:57.839Z,12.43
2024-02-22T14:12:27.287Z,12.46
2024-02-22T14:14:55.484Z,12.47
2024-02-22T14:17:25.844Z,12.46
2024-02-22T14:19:54.298Z,12.60
2024-02-22T14:22:22.544Z,12.55
2024-02-22T14:24:50.729Z,12.67
2024-02-22T14:27:18.904Z,12.65
2024-02-22T14:29:50.852Z,12.61
2024-02-22T14:32:19.048Z,12.62
2024-02-22T14:34:48.871Z,12.65
2024-02-22T14:37:18.154Z,12.59
2024-02-22T14:39:46.332Z,12.57
2024-02-22T14:42:17.898Z,12.54
2024-02-22T14:44:47.241Z,12.55
2024-02-22T14:47:15.833Z,12.58
2024-02-22T14:49:44.977Z,12.53
2024-02-22T14:52:13.680Z,12.53
2024-02-22T14:54:43.277Z,12.45
2024-02-22T14:57:11.977Z,12.43
2024-02-22T14:59:40.149Z,12.39
2024-02-22T15:02:08.408Z,12.39
2024-02-22T15:04:36.739Z,12.36
2024-02-22T15:07:06.544Z,12.39
2024-02-22T15:09:35.153Z,12.36
2024-02-22T15:12:03.443Z,12.35
2024-02-22T15:14:32.251Z,12.36
2024-02-22T15:17:00.599Z,12.37
2024-02-22T15:19:28.895Z,12.40
2024-02-22T15:21:57.142Z,12.39
2024-02-22T15:24:25.277Z,12.44
2024-02-22T15:26:57.862Z,12.43
2024-02-22T15:29:26.077Z,12.41
2024-02-22T15:31:54.700Z,12.40
2024-02-22T15:34:24.716Z,12.40
2024-02-22T15:36:54.307Z,12.52
2024-02-22T15:39:22.954Z,12.43
2024-02-22T15:41:51.382Z,12.41
2024-02-22T15:44:19.960Z,12.42
2024-02-22T15:46:49.265Z,12.40
2024-02-22T15:49:17.596Z,12.42
2024-02-22T15:51:45.825Z,12.37
2024-02-22T15:54:14.276Z,12.36
2024-02-22T15:56:42.504Z,12.40
2024-02-22T15:59:10.948Z,12.35
2024-02-22T16:01:39.377Z,12.38
2024-02-22T16:04:08.213Z,12.28
2024-02-22T16:06:39.225Z,12.23
2024-02-22T16:09:09.071Z,12.26
2024-02-22T16:11:37.671Z,12.26
2024-02-22T16:14:06.095Z,12.25
2024-02-22T16:16:34.424Z,12.21
2024-02-22T16:19:02.651Z,12.14
2024-02-22T16:21:30.873Z,12.12
2024-02-22T16:23:59.206Z,12.12
2024-02-22T16:26:27.734Z,12.04
2024-02-22T16:28:55.951Z,12.08
2024-02-22T16:31:24.301Z,11.99
2024-02-22T16:33:52.575Z,11.93
2024-02-22T16:36:20.827Z,11.90
2024-02-22T16:38:54.959Z,11.89
2024-02-22T16:41:31.804Z,11.92
2024-02-22T16:44:00.468Z,11.92
2024-02-22T16:46:28.817Z,12.01
2024-02-22T16:48:57.568Z,11.94
2024-02-22T16:51:25.806Z,11.93
2024-02-22T16:53:54.483Z,11.95
2024-02-22T16:56:23.773Z,11.91
2024-02-22T16:58:52.206Z,11.98
2024-02-22T17:01:20.662Z,11.88
2024-02-22T17:03:48.996Z,11.85
2024-02-22T17:06:17.071Z,11.81
2024-02-22T17:08:45.683Z,11.82
2024-02-22T17:11:14.289Z,11.87
2024-02-22T17:13:42.882Z,11.80
2024-02-22T17:16:11.852Z,11.81
2024-02-22T17:18:40.049Z,11.92
2024-02-22T17:21:09.765Z,11.84
2024-02-22T17:23:39.412Z,11.78
2024-02-22T17:26:08.224Z,11.75
2024-02-22T17:28:38.748Z,11.69
2024-02-22T17:31:09.049Z,11.71
2024-02-22T17:33:37.538Z,11.72
2024-02-22T17:36:07.012Z,11.70
2024-02-22T17:38:35.524Z,11.72
2024-02-22T17:41:04.208Z,11.79
2024-02-22T17:43:32.681Z,11.81
2024-02-22T17:46:03.024Z,11.73
2024-02-22T17:48:31.754Z,11.90
2024-02-22T17:50:59.989Z,11.78
2024-02-22T17:53:29.950Z,11.89
2024-02-22T17:55:58.272Z,11.78
2024-02-22T17:58:26.713Z,11.91
2024-02-22T18:00:56.528Z,11.77
2024-02-22T18:03:27.780Z,11.82
2024-02-22T18:05:56.073Z,11.70
2024-02-22T18:08:24.410Z,11.76
2024-02-22T18:10:53.316Z,11.77
2024-02-22T18:13:22.142Z,11.66
2024-02-22T18:15:50.462Z,11.70
2024-02-22T18:18:18.789Z,11.72
2024-02-22T18:20:47.040Z,11.66
2024-02-22T18:23:15.702Z,11.63
2024-02-22T18:25:43.949Z,11.70
2024-02-22T18:28:13.431Z,11.63
2024-02-22T18:30:44.607Z,11.62
2024-02-22T18:33:13.119Z,11.65
2024-02-22T18:35:41.032Z,11.68
2024-02-22T18:38:09.214Z,11.64
2024-02-22T18:40:37.592Z,11.71
2024-02-22T18:43:05.936Z,11.54
2024-02-22T18:45:34.248Z,11.49
2024-02-22T18:48:04.964Z,11.48
2024-02-22T18:50:33.335Z,11.48
2024-02-22T18:53:02.438Z,11.42
2024-02-22T18:55:30.622Z,11.36
2024-02-22T18:57:58.840Z,11.28
2024-02-22T19:00:27.149Z,11.30
2024-02-22T19:02:55.558Z,11.24
2024-02-22T19:05:24.629Z,11.23
2024-02-22T19:07:53.057Z,11.22
2024-02-22T19:10:21.426Z,11.20
2024-02-22T19:12:49.668Z,11.29
2024-02-22T19:15:20.233Z,11.24
2024-02-22T19:17:48.533Z,11.24
2024-02-22T19:20:17.165Z,11.13
2024-02-22T19:22:46.243Z,11.18
2024-02-22T19:25:14.544Z,11.08
2024-02-22T19:27:46.716Z,11.03
2024-02-22T19:30:15.138Z,11.03
2024-02-22T19:32:44.032Z,11.09
2024-02-22T19:35:19.418Z,11.04
2024-02-22T19:37:48.868Z,10.99
2024-02-22T19:40:17.582Z,11.04
2024-02-22T19:42:46.017Z,10.99
2024-02-22T19:45:16.624Z,11.04
2024-02-22T19:47:45.157Z,10.93
2024-02-22T19:50:13.523Z,10.93
2024-02-22T19:52:42.106Z,10.89
2024-02-22T19:55:10.319Z,10.94
2024-02-22T19:57:38.573Z,10.89
2024-02-22T20:00:07.384Z,11.03
2024-02-22T20:02:35.914Z,10.94
2024-02-22T20:05:04.379Z,10.88
2024-02-22T20:07:34.672Z,10.90
2024-02-22T20:10:03.585Z,10.82
2024-02-22T20:12:31.875Z,10.77
2024-02-22T20:15:00.161Z,10.69
2024-02-22T20:17:28.616Z,10.67
2024-02-22T20:19:56.971Z,10.81
2024-02-22T20:22:25.196Z,10.76
2024-02-22T20:24:53.581Z,10.68
2024-02-22T20:27:21.758Z,10.69
2024-02-22T20:29:50.056Z,10.70
2024-02-22T20:32:18.283Z,10.59
2024-02-22T20:34:48.298Z,10.70
2024-02-22T20:37:17.633Z,10.75
2024-02-22T20:39:45.810Z,10.80
2024-02-22T20:42:14.147Z,10.66
2024-02-22T20:44:47.977Z,10.68
2024-02-22T20:47:17.202Z,10.79
2024-02-22T20:49:45.467Z,10.77
2024-02-22T20:52:13.813Z,10.80
2024-02-22T20:54:42.046Z,10.85
2024-02-22T20:59:45.365Z,10.77
2024-02-22T21:02:13.782Z,10.80
2024-02-22T21:04:42.149Z,10.81
2024-02-22T21:07:11.466Z,10.90
2024-02-22T21:09:40.102Z,10.91
2024-02-22T21:12:08.440Z,10.93
2024-02-22T21:14:36.757Z,11.01
2024-02-22T21:17:05.112Z,11.01
2024-02-22T21:19:35.909Z,10.98
2024-02-22T21:22:06.816Z,11.08
2024-02-22T21:24:35.562Z,11.03
2024-02-22T21:27:04.371Z,11.06
2024-02-22T21:29:32.601Z,11.05
2024-02-22T21:32:01.163Z,11.04
2024-02-22T21:34:29.606Z,10.95
2024-02-22T21:36:58.661Z,10.92
2024-02-22T21:39:26.862Z,11.07
2024-02-22T21:41:55.289Z,11.01
2024-02-22T21:44:23.511Z,11.18
2024-02-22T21:46:51.819Z,11.20
2024-02-22T21:49:20.127Z,11.20
2024-02-22T21:51:48.670Z,11.19
2024-02-22T21:54:17.109Z,11.19
2024-02-22T21:56:49.048Z,11.29
2024-02-22T21:59:17.297Z,11.29
2024-02-22T22:01:45.546Z,11.26
2024-02-22T22:04:14.176Z,11.23
2024-02-22T22:06:42.415Z,11.36
2024-02-22T22:09:10.793Z,11.39
2024-02-22T22:11:39.224Z,11.31
2024-02-22T22:14:07.608Z,11.51
2024-02-22T22:16:35.802Z,11.36
2024-02-22T22:19:06.452Z,11.38
2024-02-22T22:21:35.196Z,11.33
2024-02-22T22:24:03.845Z,11.38
2024-02-22T22:26:34.039Z,11.37
2024-02-22T22:29:05.543Z,11.35
2024-02-22T22:31:34.199Z,11.35
2024-02-22T22:34:08.271Z,11.49
2024-02-22T22:36:36.634Z,11.46
2024-02-22T22:39:05.078Z,11.33
2024-02-22T22:41:33.326Z,11.27
2024-02-22T22:44:01.625Z,11.35
2024-02-22T22:46:30.134Z,11.40
2024-02-22T22:48:58.444Z,11.29
2024-02-22T22:51:27.029Z,11.20
2024-02-22T22:53:55.229Z,11.17
2024-02-22T22:56:23.559Z,11.29
2024-02-22T22:58:52.893Z,11.23
2024-02-22T23:01:21.323Z,11.23
2024-02-22T23:03:50.254Z,11.22
2024-02-22T23:06:19.029Z,11.32
2024-02-22T23:08:47.453Z,11.20
2024-02-22T23:11:16.840Z,11.26
2024-02-22T23:13:46.119Z,11.20
2024-02-22T23:16:48.190Z,11.29
2024-02-22T23:19:16.610Z,11.27
2024-02-22T23:21:44.998Z,11.24
2024-02-22T23:24:13.583Z,11.29
2024-02-22T23:26:42.035Z,11.27
2024-02-22T23:29:10.620Z,11.28
2024-02-22T23:31:39.998Z,11.20
2024-02-22T23:34:08.734Z,11.26
2024-02-22T23:36:37.563Z,11.19
2024-02-22T23:39:06.356Z,11.10
2024-02-22T23:41:34.681Z,11.08
2024-02-22T23:44:03.384Z,11.04
2024-02-22T23:46:32.509Z,11.05
2024-02-22T23:49:00.986Z,11.12
2024-02-22T23:51:29.186Z,11.10
2024-02-22T23:53:59.211Z,10.99
2024-02-22T23:56:27.499Z,11.13
2024-02-22T23:58:55.941Z,11.13
